createdAt,value
2022-10-24T00:03:17.786Z,20.80
2022-10-24T00:13:23.208Z,20.70
2022-10-24T00:23:26.960Z,20.90
2022-10-24T00:33:32.498Z,21.10
2022-10-24T00:43:36.165Z,21.30
2022-10-24T00:53:46.837Z,21.20
2022-10-24T01:03:50.470Z,21.40
2022-10-24T01:14:04.421Z,21.70
2022-10-24T01:24:32.737Z,21.60
2022-10-24T01:34:44.818Z,21.70
2022-10-24T01:44:51.941Z,21.60
2022-10-24T01:54:57.001Z,21.50
2022-10-24T02:05:06.506Z,20.70
2022-10-24T02:15:16.619Z,20.20
2022-10-24T02:25:26.523Z,19.60
2022-10-24T02:35:34.165Z,19.20
2022-10-24T02:45:39.207Z,18.80
2022-10-24T02:55:44.316Z,19.00
2022-10-24T03:05:48.104Z,18.90
2022-10-24T03:15:53.613Z,19.30
2022-10-24T03:25:57.601Z,19.00
2022-10-24T03:36:02.911Z,18.70
2022-10-24T03:46:06.709Z,18.60
2022-10-24T03:56:11.995Z,19.00
2022-10-24T04:06:16.337Z,19.50
2022-10-24T04:16:24.272Z,20.10
2022-10-24T04:26:28.158Z,19.80
2022-10-24T04:36:33.431Z,20.40
2022-10-24T04:46:37.254Z,20.60
2022-10-24T04:56:42.951Z,21.00
2022-10-24T05:06:47.396Z,20.80
2022-10-24T05:16:52.707Z,20.80
2022-10-24T05:26:56.414Z,21.00
2022-10-24T05:37:01.503Z,20.80
2022-10-24T05:47:05.250Z,20.70
2022-10-24T05:57:10.463Z,20.60
2022-10-24T06:07:14.140Z,20.60
2022-10-24T06:17:19.198Z,20.20
2022-10-24T06:27:23.158Z,19.60
2022-10-24T06:37:28.969Z,19.30
2022-10-24T06:47:33.641Z,19.20
2022-10-24T06:57:38.757Z,19.70
2022-10-24T07:07:43.145Z,19.80
2022-10-24T07:17:48.518Z,20.10
2022-10-24T07:27:55.070Z,20.50
2022-10-24T07:38:00.530Z,20.90
2022-10-24T07:48:06.098Z,21.40
2022-10-24T07:58:12.600Z,21.80
2022-10-24T08:08:36.923Z,22.30
2022-10-24T08:18:41.823Z,22.90
2022-10-24T08:28:46.620Z,23.40
2022-10-24T08:38:51.806Z,23.90
2022-10-24T08:49:01.933Z,24.50
2022-10-24T08:59:09.549Z,24.40
2022-10-24T09:09:20.706Z,24.10
2022-10-24T09:19:28.990Z,24.10
2022-10-24T09:29:35.561Z,24.10
2022-10-24T09:39:40.696Z,24.40
2022-10-24T09:49:47.829Z,24.50
2022-10-24T10:00:01.812Z,24.60
2022-10-24T10:10:09.815Z,24.70
2022-10-24T10:20:26.001Z,25.40
2022-10-24T10:30:30.194Z,26.30
2022-10-24T10:40:38.754Z,26.70
2022-10-24T10:50:46.618Z,27.40
2022-10-24T11:00:58.257Z,27.20
2022-10-24T11:11:04.959Z,28.50
2022-10-24T11:21:11.799Z,29.00
2022-10-24T11:31:23.382Z,28.30
2022-10-24T11:41:42.741Z,28.40
2022-10-24T11:51:52.344Z,27.90
2022-10-24T12:02:36.963Z,26.60
2022-10-24T12:12:55.609Z,27.50
2022-10-24T12:23:02.782Z,27.20
2022-10-24T12:33:13.540Z,26.10
2022-10-24T12:43:30.313Z,26.60
2022-10-24T12:53:56.319Z,29.30
2022-10-24T13:04:29.634Z,27.60
2022-10-24T13:15:15.976Z,27.10
2022-10-24T13:25:33.847Z,27.80
2022-10-24T13:35:38.207Z,28.30
2022-10-24T13:45:49.005Z,28.20
2022-10-24T13:55:53.250Z,28.90
2022-10-24T14:06:01.180Z,29.10
2022-10-24T14:16:07.159Z,29.40
2022-10-24T14:26:16.930Z,29.50
2022-10-24T14:36:22.012Z,29.10
2022-10-24T14:46:42.783Z,30.20
2022-10-24T14:56:47.108Z,29.90
2022-10-24T15:06:56.764Z,29.00
2022-10-24T15:17:04.628Z,26.70
2022-10-24T15:27:14.154Z,26.00
2022-10-24T15:37:23.441Z,26.90
2022-10-24T15:47:29.418Z,26.70
2022-10-24T15:57:33.119Z,26.60
2022-10-24T16:07:38.201Z,26.80
2022-10-24T16:17:42.224Z,27.00
2022-10-24T16:27:48.740Z,26.70
2022-10-24T16:37:52.930Z,26.30
2022-10-24T16:47:58.080Z,26.20
2022-10-24T16:58:02.254Z,25.90
2022-10-24T17:08:07.854Z,25.70
2022-10-24T17:18:12.677Z,25.50
2022-10-24T17:28:18.652Z,25.10
2022-10-24T17:38:35.371Z,24.70
2022-10-24T17:48:40.698Z,24.40
2022-10-24T17:58:44.945Z,24.20
2022-10-24T18:08:53.603Z,24.10
2022-10-24T18:18:57.444Z,23.80
2022-10-24T18:29:02.585Z,23.90
2022-10-24T18:39:07.235Z,23.50
2022-10-24T18:49:12.854Z,23.40
2022-10-24T18:59:18.948Z,23.40
2022-10-24T19:09:25.950Z,23.30
2022-10-24T19:19:34.759Z,23.00
2022-10-24T19:29:39.953Z,22.80
2022-10-24T19:39:44.127Z,22.40
2022-10-24T19:49:49.375Z,21.40
2022-10-24T19:59:54.097Z,21.30
2022-10-24T20:09:59.487Z,20.70
2022-10-24T20:20:03.186Z,20.20
2022-10-24T20:30:10.121Z,19.70
2022-10-24T20:40:14.242Z,20.00
2022-10-24T20:50:19.439Z,20.00
2022-10-24T21:00:24.159Z,19.90
2022-10-24T21:10:29.753Z,19.60
2022-10-24T21:20:33.564Z,19.70
2022-10-24T21:30:38.666Z,19.60
2022-10-24T21:40:42.444Z,19.60
2022-10-24T21:50:47.697Z,19.50
2022-10-24T22:00:51.511Z,19.30
2022-10-24T22:11:02.217Z,19.20
2022-10-24T22:21:09.057Z,19.00
2022-10-24T22:31:16.638Z,19.10
2022-10-24T22:41:20.923Z,19.30
2022-10-24T22:51:26.485Z,19.80
2022-10-24T23:01:42.445Z,19.50
2022-10-24T23:11:48.625Z,19.40
2022-10-24T23:21:56.170Z,19.20
2022-10-24T23:32:02.000Z,18.90
2022-10-24T23:42:06.428Z,18.60
2022-10-24T23:52:26.537Z,18.50
